createdAt,value
2024-01-12T00:01:00.000Z,103954.06
2024-01-12T00:03:29.402Z,103955.03
2024-01-12T00:05:57.526Z,103954.13
2024-01-12T00:08:25.652Z,103958.59
2024-01-12T00:10:53.692Z,103963.00
2024-01-12T00:13:21.720Z,103967.44
2024-01-12T00:15:49.759Z,103956.78
2024-01-12T00:18:17.983Z,103951.47
2024-01-12T00:20:47.668Z,103953.22
2024-01-12T00:23:15.899Z,103956.78
2024-01-12T00:25:43.938Z,103903.25
2024-01-12T00:28:14.613Z,103965.66
2024-01-12T00:30:46.390Z,103954.91
2024-01-12T00:33:14.857Z,103970.13
2024-01-12T00:35:43.044Z,103966.63
2024-01-12T00:38:12.796Z,103962.16
2024-01-12T00:40:40.914Z,103954.19
2024-01-12T00:43:09.716Z,103945.19
2024-01-12T00:45:37.764Z,103963.00
2024-01-12T00:48:07.503Z,103959.50
2024-01-12T00:50:35.713Z,103958.59
2024-01-12T00:53:03.821Z,103965.66
2024-01-12T00:55:34.290Z,103954.13
2024-01-12T00:58:02.339Z,103945.25
2024-01-12T01:00:31.952Z,103948.81
2024-01-12T01:03:03.060Z,103939.94
2024-01-12T01:05:31.193Z,103948.75
2024-01-12T01:07:59.853Z,103941.63
2024-01-12T01:10:27.907Z,103938.97
2024-01-12T01:12:57.288Z,103938.09
2024-01-12T01:15:25.378Z,103949.59
2024-01-12T01:17:54.066Z,103939.81
2024-01-12T01:20:23.073Z,103937.13
2024-01-12T01:22:51.186Z,103937.16
2024-01-12T01:25:19.353Z,103941.66
2024-01-12T01:27:47.399Z,103947.91
2024-01-12T01:30:17.100Z,103918.53
2024-01-12T01:32:45.226Z,103928.44
2024-01-12T01:35:13.421Z,103932.00
2024-01-12T01:37:41.586Z,103933.75
2024-01-12T01:40:10.422Z,103935.50
2024-01-12T01:42:38.500Z,103924.81
2024-01-12T01:45:07.339Z,103935.44
2024-01-12T01:47:36.936Z,103934.53
2024-01-12T01:50:05.359Z,103911.28
2024-01-12T01:52:33.504Z,103926.44
2024-01-12T01:55:01.611Z,103914.06
2024-01-12T01:57:29.643Z,103918.53
2024-01-12T01:59:58.092Z,103908.78
2024-01-12T02:02:26.379Z,103901.66
2024-01-12T02:04:56.087Z,103897.19
2024-01-12T02:07:24.163Z,103889.22
2024-01-12T02:09:52.350Z,103890.06
2024-01-12T02:12:20.476Z,103890.09
2024-01-12T02:14:48.766Z,103872.34
2024-01-12T02:17:16.894Z,103884.81
2024-01-12T02:19:44.987Z,103873.38
2024-01-12T02:22:14.563Z,103866.06
2024-01-12T02:24:42.694Z,103888.38
2024-01-12T02:27:10.788Z,103890.13
2024-01-12T02:29:38.860Z,103887.44
2024-01-12T02:32:06.968Z,103883.88
2024-01-12T02:34:35.045Z,103874.16
2024-01-12T02:37:03.107Z,103883.03
2024-01-12T02:39:32.575Z,103864.44
2024-01-12T02:42:00.641Z,103861.78
2024-01-12T02:44:28.781Z,103868.91
2024-01-12T02:46:56.830Z,103865.38
2024-01-12T02:49:24.908Z,103863.66
2024-01-12T02:51:52.984Z,103868.00
2024-01-12T02:54:21.060Z,103868.97
2024-01-12T02:56:50.741Z,103879.63
2024-01-12T02:59:18.815Z,103868.13
2024-01-12T03:01:46.907Z,103877.81
2024-01-12T03:04:15.140Z,103843.97
2024-01-12T03:06:43.424Z,103867.16
2024-01-12T03:09:11.655Z,103873.31
2024-01-12T03:11:39.868Z,103875.06
2024-01-12T03:14:09.302Z,103861.78
2024-01-12T03:16:37.346Z,103872.41
2024-01-12T03:19:05.705Z,103865.31
2024-01-12T03:21:34.244Z,103864.44
2024-01-12T03:24:02.368Z,103866.22
2024-01-12T03:26:30.521Z,103859.13
2024-01-12T03:28:58.572Z,103842.25
2024-01-12T03:31:28.015Z,103860.97
2024-01-12T03:33:56.191Z,103846.78
2024-01-12T03:36:24.712Z,103844.13
2024-01-12T03:38:54.503Z,103832.50
2024-01-12T03:41:22.593Z,103844.09
2024-01-12T03:43:50.698Z,103785.31
2024-01-12T03:46:18.700Z,103850.22
2024-01-12T03:48:48.368Z,103841.34
2024-01-12T03:51:16.522Z,103835.13
2024-01-12T03:53:44.634Z,103843.16
2024-01-12T03:56:12.674Z,103842.25
2024-01-12T03:58:41.125Z,103838.78
2024-01-12T04:01:09.457Z,103841.44
2024-01-12T04:03:37.537Z,103816.50
2024-01-12T04:06:11.058Z,103827.19
2024-01-12T04:08:39.302Z,103834.28
2024-01-12T04:11:08.193Z,103832.50
2024-01-12T04:13:36.299Z,103831.56
2024-01-12T04:16:04.398Z,103833.34
2024-01-12T04:18:32.621Z,103827.97
2024-01-12T04:21:01.987Z,103830.69
2024-01-12T04:23:31.563Z,103827.06
2024-01-12T04:25:59.779Z,103811.16
2024-01-12T04:28:27.883Z,103828.94
2024-01-12T04:30:56.147Z,103825.38
2024-01-12T04:33:24.323Z,103828.94
2024-01-12T04:35:52.951Z,103823.63
2024-01-12T04:38:21.178Z,103824.50
2024-01-12T04:40:50.719Z,103819.13
2024-01-12T04:43:18.750Z,103819.13
2024-01-12T04:45:46.805Z,103821.75
2024-01-12T04:48:14.914Z,103831.56
2024-01-12T04:50:43.003Z,103832.50
2024-01-12T04:53:11.190Z,103819.16
2024-01-12T04:55:39.243Z,103825.34
2024-01-12T04:58:08.657Z,103829.84
2024-01-12T05:00:36.751Z,103821.88
2024-01-12T05:03:05.310Z,103821.88
2024-01-12T05:05:33.896Z,103818.34
2024-01-12T05:08:02.023Z,103823.63
2024-01-12T05:10:30.046Z,103820.13
2024-01-12T05:12:58.099Z,103821.09
2024-01-12T05:15:27.550Z,103810.44
2024-01-12T05:17:55.802Z,103816.69
2024-01-12T05:20:24.042Z,103815.84
2024-01-12T05:22:52.085Z,103811.34
2024-01-12T05:25:20.107Z,103806.06
2024-01-12T05:27:48.191Z,103790.06
2024-01-12T05:30:16.416Z,103811.41
2024-01-12T05:32:46.582Z,103807.00
2024-01-12T05:35:16.035Z,103798.97
2024-01-12T05:37:44.650Z,103803.44
2024-01-12T05:40:13.124Z,103802.53
2024-01-12T05:42:41.250Z,103804.31
2024-01-12T05:45:09.990Z,103790.91
2024-01-12T05:47:38.560Z,103803.31
2024-01-12T05:50:09.451Z,103799.81
2024-01-12T05:52:37.604Z,103810.44
2024-01-12T05:55:06.185Z,103812.19
2024-01-12T05:57:35.948Z,103802.47
2024-01-12T06:00:05.600Z,103801.63
2024-01-12T06:02:33.882Z,103791.06
2024-01-12T06:05:02.042Z,103792.88
2024-01-12T06:07:31.465Z,103782.22
2024-01-12T06:09:59.515Z,103791.13
2024-01-12T06:12:27.676Z,103790.19
2024-01-12T06:14:55.849Z,103789.25
2024-01-12T06:17:23.932Z,103787.47
2024-01-12T06:19:52.100Z,103789.28
2024-01-12T06:22:20.177Z,103777.69
2024-01-12T06:24:49.618Z,103776.84
2024-01-12T06:27:17.886Z,103792.75
2024-01-12T06:29:45.971Z,103764.31
2024-01-12T06:32:14.411Z,103787.47
2024-01-12T06:34:42.802Z,103788.31
2024-01-12T06:37:10.853Z,103772.34
2024-01-12T06:39:40.584Z,103772.34
2024-01-12T06:42:10.311Z,103790.09
2024-01-12T06:44:41.220Z,103798.06
2024-01-12T06:47:09.585Z,103787.44
2024-01-12T06:49:37.843Z,103785.72
2024-01-12T06:52:06.801Z,103776.81
2024-01-12T06:54:34.830Z,103785.78
2024-01-12T06:57:02.963Z,103776.84
2024-01-12T06:59:32.912Z,103764.44
2024-01-12T07:02:01.651Z,103786.69
2024-01-12T07:04:29.748Z,103776.06
2024-01-12T07:06:58.084Z,103781.38
2024-01-12T07:09:26.526Z,103757.38
2024-01-12T07:11:54.972Z,103741.31
2024-01-12T07:14:23.170Z,103768.91
2024-01-12T07:16:52.607Z,103768.91
2024-01-12T07:19:20.832Z,103768.03
2024-01-12T07:21:49.032Z,103772.44
2024-01-12T07:24:17.141Z,103768.00
2024-01-12T07:26:45.213Z,103776.00
2024-01-12T07:29:14.584Z,103728.88
2024-01-12T07:31:42.627Z,103772.50
2024-01-12T07:34:12.357Z,103780.47
2024-01-12T07:36:40.576Z,103778.72
2024-01-12T07:39:09.783Z,103758.31
2024-01-12T07:41:37.923Z,103773.50
2024-01-12T07:44:08.624Z,103771.75
2024-01-12T07:46:37.986Z,103777.06
2024-01-12T07:49:06.141Z,103760.19
2024-01-12T07:51:36.082Z,103775.38
2024-01-12T07:54:04.223Z,103775.38
2024-01-12T07:56:32.278Z,103778.00
2024-01-12T07:59:00.496Z,103770.84
2024-01-12T08:01:28.474Z,103791.25
2024-01-12T08:03:56.843Z,103788.59
2024-01-12T08:06:24.980Z,103784.19
2024-01-12T08:08:54.562Z,103778.81
2024-01-12T08:11:27.284Z,103785.88
2024-01-12T08:14:03.608Z,103780.50
2024-01-12T08:16:32.488Z,103786.72
2024-01-12T08:19:01.314Z,103749.31
2024-01-12T08:21:37.685Z,103795.69
2024-01-12T08:24:14.905Z,103784.22
2024-01-12T08:26:43.084Z,103783.31
2024-01-12T08:29:11.168Z,103788.69
2024-01-12T08:31:39.213Z,103769.16
2024-01-12T08:34:07.538Z,103762.09
2024-01-12T08:36:35.746Z,103787.88
2024-01-12T08:39:04.033Z,103779.91
2024-01-12T08:41:33.834Z,103774.59
2024-01-12T08:44:02.174Z,103777.25
2024-01-12T08:46:30.216Z,103757.69
2024-01-12T08:49:00.128Z,103775.47
2024-01-12T08:51:28.279Z,103767.41
2024-01-12T08:53:56.724Z,103779.00
2024-01-12T08:56:24.856Z,103779.00
2024-01-12T08:58:54.288Z,103768.41
2024-01-12T09:01:22.340Z,103778.13
2024-01-12T09:03:53.701Z,103777.22
2024-01-12T09:06:25.024Z,103767.44
2024-01-12T09:08:53.438Z,103766.50
2024-01-12T09:11:21.564Z,103764.78
2024-01-12T09:13:50.871Z,103770.09
2024-01-12T09:16:20.323Z,103771.00
2024-01-12T09:18:49.888Z,103764.84
2024-01-12T09:21:18.202Z,103775.47
2024-01-12T09:23:46.338Z,103762.13
2024-01-12T09:26:14.468Z,103783.47
2024-01-12T09:28:42.673Z,103785.28
2024-01-12T09:31:11.130Z,103618.13
2024-01-12T09:33:41.034Z,103782.72
2024-01-12T09:36:10.158Z,103773.91
2024-01-12T09:38:38.311Z,103773.13
2024-01-12T09:41:06.751Z,103724.13
2024-01-12T09:43:34.799Z,103768.63
2024-01-12T09:46:03.265Z,103764.16
2024-01-12T09:48:31.967Z,103766.78
2024-01-12T09:51:01.611Z,103742.81
2024-01-12T09:53:30.037Z,103756.13
2024-01-12T09:56:05.931Z,103761.47
2024-01-12T09:58:36.080Z,103720.59
2024-01-12T10:01:04.186Z,103759.72
2024-01-12T10:03:32.281Z,103750.91
2024-01-12T10:06:01.820Z,103742.84
2024-01-12T10:08:37.304Z,103754.44
2024-01-12T10:11:05.805Z,103756.25
2024-01-12T10:13:33.903Z,103762.50
2024-01-12T10:16:02.908Z,103755.44
2024-01-12T10:18:33.754Z,103750.13
2024-01-12T10:21:03.943Z,103759.06
2024-01-12T10:23:33.026Z,103759.88
2024-01-12T10:26:01.631Z,103758.13
2024-01-12T10:28:30.701Z,103758.13
2024-01-12T10:30:59.038Z,103763.44
2024-01-12T10:33:27.412Z,103763.47
2024-01-12T10:35:59.574Z,103751.09
2024-01-12T10:38:28.985Z,103754.66
2024-01-12T10:40:57.163Z,103763.56
2024-01-12T10:43:25.986Z,103746.72
2024-01-12T10:45:55.245Z,103772.56
2024-01-12T10:48:23.417Z,103770.81
2024-01-12T10:50:54.629Z,103758.34
2024-01-12T10:53:23.623Z,103757.47
2024-01-12T10:55:57.087Z,103752.13
2024-01-12T10:58:25.138Z,103716.53
2024-01-12T11:00:54.021Z,103747.66
2024-01-12T11:03:22.244Z,103761.09
2024-01-12T11:05:50.595Z,103721.13
2024-01-12T11:08:18.908Z,103735.44
2024-01-12T11:10:49.068Z,103651.84
2024-01-12T11:13:18.977Z,103747.00
2024-01-12T11:15:50.838Z,103705.25
2024-01-12T11:18:19.168Z,103701.72
2024-01-12T11:20:47.233Z,103745.25
2024-01-12T11:23:15.470Z,103743.50
2024-01-12T11:25:44.728Z,103740.00
2024-01-12T11:28:12.848Z,103719.59
2024-01-12T11:30:43.938Z,103668.94
2024-01-12T11:33:12.238Z,103731.16
2024-01-12T11:35:41.218Z,103719.63
2024-01-12T11:38:10.745Z,103723.19
2024-01-12T11:40:39.382Z,103722.31
2024-01-12T11:43:08.067Z,103701.00
2024-01-12T11:45:41.068Z,103685.94
2024-01-12T11:48:11.097Z,103689.47
2024-01-12T11:50:39.374Z,103607.75
2024-01-12T11:53:10.111Z,103697.50
2024-01-12T11:55:38.820Z,103688.66
2024-01-12T11:58:07.195Z,103680.69
2024-01-12T12:00:35.432Z,103664.72
2024-01-12T12:03:03.579Z,103682.47
2024-01-12T12:05:33.379Z,103670.97
2024-01-12T12:08:01.532Z,103664.72
2024-01-12T12:10:37.412Z,103608.78
2024-01-12T12:13:11.741Z,103652.34
2024-01-12T12:15:39.813Z,103650.53
2024-01-12T12:18:08.896Z,103647.88
2024-01-12T12:20:38.628Z,103637.19
2024-01-12T12:23:08.468Z,103656.72
2024-01-12T12:25:36.664Z,103650.50
2024-01-12T12:28:05.062Z,103642.53
2024-01-12T12:30:33.368Z,103604.38
2024-01-12T12:33:01.957Z,103636.34
2024-01-12T12:35:30.184Z,103646.97
2024-01-12T12:38:02.688Z,103597.25
2024-01-12T12:40:30.932Z,103637.19
2024-01-12T12:42:59.944Z,103626.59
2024-01-12T12:45:28.696Z,103597.31
2024-01-12T12:47:56.853Z,103619.53
2024-01-12T12:50:25.705Z,103623.06
2024-01-12T12:52:54.110Z,103621.31
2024-01-12T12:55:23.595Z,103617.78
2024-01-12T12:57:52.268Z,103615.13
2024-01-12T13:00:20.539Z,103463.31
2024-01-12T13:02:49.154Z,103580.50
2024-01-12T13:05:19.149Z,103604.47
2024-01-12T13:07:47.284Z,103594.72
2024-01-12T13:10:15.425Z,103600.03
2024-01-12T13:12:44.895Z,103544.16
2024-01-12T13:15:13.202Z,103533.50
2024-01-12T13:17:42.066Z,103367.56
2024-01-12T13:20:13.193Z,103582.28
2024-01-12T13:22:41.357Z,103576.09
2024-01-12T13:25:09.977Z,103554.81
2024-01-12T13:27:38.598Z,103580.53
2024-01-12T13:30:10.876Z,103448.28
2024-01-12T13:32:39.345Z,103537.06
2024-01-12T13:35:08.957Z,103554.78
2024-01-12T13:37:37.214Z,103560.13
2024-01-12T13:40:05.776Z,103549.47
2024-01-12T13:42:34.252Z,103551.25
2024-01-12T13:45:03.036Z,103550.38
2024-01-12T13:47:33.022Z,103545.97
2024-01-12T13:50:01.230Z,103523.78
2024-01-12T13:52:29.270Z,103519.38
2024-01-12T13:54:57.332Z,103500.75
2024-01-12T13:57:25.412Z,103527.38
2024-01-12T13:59:53.477Z,103526.47
2024-01-12T14:02:22.415Z,103525.59
2024-01-12T14:05:01.095Z,103517.63
2024-01-12T14:07:38.656Z,103518.50
2024-01-12T14:10:07.491Z,103514.94
2024-01-12T14:12:35.584Z,103506.06
2024-01-12T14:15:04.060Z,103506.09
2024-01-12T14:17:32.474Z,103511.38
2024-01-12T14:20:02.470Z,103504.31
2024-01-12T14:22:30.592Z,103503.41
2024-01-12T14:24:58.675Z,103492.75
2024-01-12T14:27:26.891Z,103505.19
2024-01-12T14:29:56.012Z,103502.50
2024-01-12T14:32:24.556Z,103494.53
2024-01-12T14:34:52.774Z,103484.78
2024-01-12T14:37:23.701Z,103490.97
2024-01-12T14:39:52.147Z,103501.63
2024-01-12T14:42:20.240Z,103496.31
2024-01-12T14:44:48.537Z,103490.06
2024-01-12T14:47:18.021Z,103480.34
2024-01-12T14:49:46.306Z,103484.75
2024-01-12T14:52:14.501Z,103479.44
2024-01-12T14:54:45.532Z,103489.19
2024-01-12T14:57:13.642Z,103475.88
2024-01-12T14:59:41.750Z,103490.06
2024-01-12T15:02:10.240Z,103464.38
2024-01-12T15:04:38.463Z,103493.59
2024-01-12T15:07:08.888Z,103490.91
2024-01-12T15:09:36.968Z,103476.69
2024-01-12T15:12:07.823Z,103477.59
2024-01-12T15:14:36.458Z,103487.28
2024-01-12T15:17:04.622Z,103478.41
2024-01-12T15:19:33.125Z,103478.44
2024-01-12T15:22:01.427Z,103385.31
2024-01-12T15:24:29.485Z,103355.94
2024-01-12T15:26:57.678Z,103473.97
2024-01-12T15:29:27.389Z,103467.78
2024-01-12T15:31:55.444Z,103478.38
2024-01-12T15:34:24.110Z,103403.84
2024-01-12T15:36:52.351Z,103477.47
2024-01-12T15:39:20.349Z,103469.47
2024-01-12T15:41:51.151Z,103469.50
2024-01-12T15:44:20.432Z,103471.22
2024-01-12T15:46:50.810Z,103453.44
2024-01-12T15:49:19.348Z,103457.03
2024-01-12T15:51:47.686Z,103434.81
2024-01-12T15:54:15.841Z,103458.69
2024-01-12T15:56:43.912Z,103476.47
2024-01-12T15:59:16.248Z,103480.00
2024-01-12T16:01:45.148Z,103456.94
2024-01-12T16:04:15.248Z,103475.56
2024-01-12T16:06:47.502Z,103472.03
2024-01-12T16:09:15.837Z,103472.03
2024-01-12T16:11:44.063Z,103477.34
2024-01-12T16:14:12.570Z,103473.81
2024-01-12T16:16:43.480Z,103440.97
2024-01-12T16:19:15.503Z,103464.91
2024-01-12T16:21:45.703Z,103473.78
2024-01-12T16:24:13.876Z,103478.19
2024-01-12T16:26:42.253Z,103466.63
2024-01-12T16:29:10.306Z,103475.50
2024-01-12T16:31:38.472Z,103479.06
2024-01-12T16:34:07.160Z,103459.56
2024-01-12T16:36:35.427Z,103474.66
2024-01-12T16:39:05.324Z,103474.66
2024-01-12T16:41:33.609Z,103474.66
2024-01-12T16:44:01.737Z,103473.75
2024-01-12T16:46:28.742Z,103453.34
2024-01-12T16:48:57.110Z,103471.06
2024-01-12T16:51:25.404Z,103463.06
2024-01-12T16:53:53.566Z,103456.88
2024-01-12T16:56:23.209Z,103463.06
2024-01-12T16:58:51.376Z,103436.44
2024-01-12T17:01:22.000Z,103428.47
2024-01-12T17:03:51.119Z,103428.44
2024-01-12T17:06:19.294Z,103421.34
2024-01-12T17:08:47.484Z,103464.81
2024-01-12T17:11:15.601Z,103415.13
2024-01-12T17:13:45.319Z,103438.22
2024-01-12T17:16:13.385Z,103447.09
2024-01-12T17:18:42.226Z,103450.69
2024-01-12T17:21:10.704Z,103445.34
2024-01-12T17:23:39.026Z,103450.69
2024-01-12T17:26:11.581Z,103443.59
2024-01-12T17:28:39.793Z,103385.94
2024-01-12T17:31:09.296Z,103366.44
2024-01-12T17:33:37.633Z,103432.09
2024-01-12T17:36:06.316Z,103448.91
2024-01-12T17:38:34.457Z,103440.03
2024-01-12T17:41:04.393Z,103444.50
2024-01-12T17:43:32.604Z,103443.59
2024-01-12T17:46:00.651Z,103412.47
2024-01-12T17:48:31.298Z,103429.44
2024-01-12T17:50:59.562Z,103422.34
2024-01-12T17:53:27.680Z,103439.19
2024-01-12T17:55:55.798Z,103407.25
2024-01-12T17:58:23.926Z,103391.31
2024-01-12T18:00:52.917Z,103433.84
2024-01-12T18:03:21.160Z,103421.44
2024-01-12T18:05:50.718Z,103395.72
2024-01-12T18:08:18.858Z,103380.63
2024-01-12T18:10:46.877Z,103397.53
2024-01-12T18:13:14.960Z,103384.22
2024-01-12T18:15:44.090Z,103413.50
2024-01-12T18:18:12.258Z,103409.94
2024-01-12T18:20:40.471Z,103410.81
2024-01-12T18:23:10.514Z,103412.59
2024-01-12T18:25:38.708Z,103394.88
2024-01-12T18:28:06.976Z,103401.94
2024-01-12T18:30:35.228Z,103414.34
2024-01-12T18:33:04.781Z,103424.03
2024-01-12T18:35:32.997Z,103294.53
2024-01-12T18:38:01.072Z,103403.69
2024-01-12T18:40:31.334Z,103401.00
2024-01-12T18:42:59.381Z,103399.28
2024-01-12T18:45:27.646Z,103370.81
2024-01-12T18:47:55.757Z,103407.25
2024-01-12T18:50:23.925Z,103403.69
2024-01-12T18:52:51.988Z,103361.13
2024-01-12T18:55:19.981Z,103404.59
2024-01-12T18:57:51.085Z,103397.50
2024-01-12T19:00:19.736Z,103383.31
2024-01-12T19:02:47.818Z,103144.81
2024-01-12T19:05:16.156Z,103393.03
2024-01-12T19:07:44.204Z,103378.81
2024-01-12T19:10:12.214Z,103337.16
2024-01-12T19:12:40.247Z,103391.28
2024-01-12T19:15:10.607Z,103393.06
2024-01-12T19:17:38.810Z,103351.38
2024-01-12T19:20:10.815Z,103365.56
2024-01-12T19:22:40.674Z,103386.84
2024-01-12T19:25:09.214Z,103393.06
2024-01-12T19:27:37.258Z,103396.59
2024-01-12T19:30:09.050Z,103401.94
2024-01-12T19:32:39.288Z,103390.38
2024-01-12T19:35:08.417Z,103331.84
2024-01-12T19:37:37.147Z,103402.81
2024-01-12T19:40:05.900Z,103363.81
2024-01-12T19:42:34.368Z,103316.75
2024-01-12T19:45:02.611Z,103354.03
2024-01-12T19:47:31.754Z,103395.72
2024-01-12T19:50:01.418Z,103350.50
2024-01-12T19:52:29.593Z,103366.41
2024-01-12T19:54:58.085Z,103361.13
2024-01-12T19:57:26.247Z,103391.31
2024-01-12T19:59:54.485Z,103399.25
2024-01-12T20:02:23.934Z,103384.25
2024-01-12T20:04:52.242Z,103378.03
2024-01-12T20:07:22.214Z,103377.16
2024-01-12T20:09:50.472Z,103326.63
2024-01-12T20:12:18.588Z,103354.16
2024-01-12T20:14:46.743Z,103386.91
2024-01-12T20:17:14.837Z,103367.50
2024-01-12T20:19:43.006Z,103341.78
2024-01-12T20:22:11.242Z,103363.06
2024-01-12T20:24:41.338Z,103348.94
2024-01-12T20:27:09.508Z,103359.56
2024-01-12T20:29:37.625Z,103348.94
2024-01-12T20:32:06.131Z,103342.72
2024-01-12T20:34:34.279Z,103325.88
2024-01-12T20:37:02.862Z,103345.41
2024-01-12T20:39:31.042Z,103337.44
2024-01-12T20:42:00.573Z,103292.22
2024-01-12T20:44:28.642Z,103343.63
2024-01-12T20:46:56.692Z,103323.22
2024-01-12T20:49:24.867Z,103338.31
2024-01-12T20:51:52.950Z,103308.19
2024-01-12T20:54:21.217Z,103326.84
2024-01-12T20:56:49.357Z,103325.94
2024-01-12T20:59:18.894Z,103286.94
2024-01-12T21:01:47.040Z,103232.91
2024-01-12T21:04:15.254Z,103274.50
2024-01-12T21:06:46.732Z,103241.75
2024-01-12T21:09:16.137Z,103316.19
2024-01-12T21:11:44.263Z,103313.53
2024-01-12T21:14:12.544Z,103309.13
2024-01-12T21:16:42.059Z,103298.47
2024-01-12T21:19:10.276Z,103315.31
2024-01-12T21:21:38.415Z,103318.81
2024-01-12T21:24:07.122Z,103271.00
2024-01-12T21:26:35.475Z,103296.72
2024-01-12T21:29:03.518Z,103302.00
2024-01-12T21:31:31.653Z,103323.25
2024-01-12T21:34:01.233Z,103302.00
2024-01-12T21:36:29.433Z,103294.06
2024-01-12T21:38:58.307Z,103304.69
2024-01-12T21:41:26.864Z,103311.78
2024-01-12T21:43:54.976Z,103311.78
2024-01-12T21:46:23.038Z,103309.09
2024-01-12T21:48:51.299Z,103301.97
2024-01-12T21:51:20.989Z,103315.25
2024-01-12T21:53:49.074Z,103315.25
2024-01-12T21:56:17.128Z,103319.63
2024-01-12T21:58:46.133Z,103275.34
2024-01-12T22:01:15.808Z,103237.22
2024-01-12T22:03:44.017Z,103291.34
2024-01-12T22:06:12.250Z,103295.78
2024-01-12T22:08:41.921Z,103296.69
2024-01-12T22:11:10.161Z,103289.66
2024-01-12T22:13:38.193Z,103296.69
2024-01-12T22:16:06.583Z,103299.34
2024-01-12T22:18:34.939Z,103302.91
2024-01-12T22:21:03.092Z,103299.34
2024-01-12T22:23:31.305Z,103243.53
2024-01-12T22:26:00.775Z,103302.03
2024-01-12T22:28:28.817Z,103280.78
2024-01-12T22:30:56.976Z,103278.13
2024-01-12T22:33:25.907Z,103263.94
2024-01-12T22:35:54.074Z,103282.56
2024-01-12T22:38:22.237Z,103258.63
2024-01-12T22:40:50.300Z,103263.94
2024-01-12T22:43:19.791Z,103283.44
2024-01-12T22:45:47.956Z,103177.94
2024-01-12T22:48:16.189Z,103293.13
2024-01-12T22:50:44.261Z,103278.06
2024-01-12T22:53:12.497Z,103292.19
2024-01-12T22:55:40.591Z,103293.06
2024-01-12T22:58:08.672Z,103293.94
2024-01-12T23:00:41.784Z,103270.91
2024-01-12T23:03:09.922Z,103286.84
2024-01-12T23:05:40.241Z,103144.19
2024-01-12T23:08:09.121Z,103245.16
2024-01-12T23:10:37.328Z,103289.53
2024-01-12T23:13:05.679Z,103279.81
2024-01-12T23:15:33.961Z,103281.56
2024-01-12T23:18:03.608Z,103184.13
2024-01-12T23:20:31.812Z,103241.75
2024-01-12T23:23:00.144Z,103280.69
2024-01-12T23:25:28.669Z,103278.03
2024-01-12T23:27:56.781Z,103274.53
2024-01-12T23:30:25.167Z,103270.06
2024-01-12T23:32:53.376Z,103233.69
2024-01-12T23:35:23.519Z,103254.09
2024-01-12T23:37:51.672Z,103274.50
2024-01-12T23:40:19.689Z,103257.66
2024-01-12T23:42:47.914Z,103250.63
2024-01-12T23:45:16.143Z,103243.50
2024-01-12T23:47:44.616Z,103264.78
2024-01-12T23:50:12.870Z,103268.25
2024-01-12T23:52:42.372Z,103240.88
2024-01-12T23:55:10.719Z,103245.34
2024-01-12T23:57:38.744Z,103231.13
